createdAt,value
2019-03-06T00:02:19.254Z,12.23
2019-03-06T00:04:49.337Z,9.93
2019-03-06T00:07:19.458Z,8.97
2019-03-06T00:09:49.656Z,9.00
2019-03-06T00:12:19.890Z,6.53
2019-03-06T00:14:50.043Z,11.40
2019-03-06T00:17:20.131Z,9.77
2019-03-06T00:19:50.447Z,6.77
2019-03-06T00:22:20.547Z,9.47
2019-03-06T00:24:50.901Z,7.53
2019-03-06T00:27:21.136Z,8.10
2019-03-06T00:29:51.202Z,8.17
2019-03-06T00:32:21.337Z,7.40
2019-03-06T00:34:52.310Z,8.27
2019-03-06T00:37:22.474Z,6.73
2019-03-06T00:39:59.889Z,8.40
2019-03-06T00:42:31.534Z,8.33
2019-03-06T00:45:01.510Z,7.83
2019-03-06T00:47:31.475Z,9.90
2019-03-06T00:50:01.542Z,8.47
2019-03-06T00:52:31.654Z,7.97
2019-03-06T00:55:01.555Z,8.47
2019-03-06T00:57:31.846Z,7.97
2019-03-06T01:00:01.755Z,6.90
2019-03-06T01:02:31.717Z,7.87
2019-03-06T01:05:01.694Z,7.67
2019-03-06T01:07:31.731Z,7.53
2019-03-06T01:10:01.706Z,8.63
2019-03-06T01:12:31.826Z,8.57
2019-03-06T01:15:01.864Z,9.43
2019-03-06T01:17:31.870Z,7.77
2019-03-06T01:20:01.807Z,9.37
2019-03-06T01:22:31.768Z,7.20
2019-03-06T01:25:01.827Z,6.67
2019-03-06T01:27:31.755Z,6.83
2019-03-06T01:30:01.626Z,6.47
2019-03-06T01:32:31.909Z,9.97
2019-03-06T01:35:19.491Z,6.80
2019-03-06T01:38:11.233Z,8.27
2019-03-06T01:41:09.322Z,8.17
2019-03-06T01:43:44.489Z,8.53
2019-03-06T01:46:14.619Z,10.43
2019-03-06T01:48:44.549Z,6.47
2019-03-06T01:51:14.718Z,7.37
2019-03-06T01:53:44.842Z,6.40
2019-03-06T01:56:14.902Z,6.60
2019-03-06T01:58:44.869Z,6.13
2019-03-06T02:01:15.280Z,8.50
2019-03-06T02:03:45.311Z,6.83
2019-03-06T02:06:15.410Z,7.67
2019-03-06T02:08:45.588Z,5.93
2019-03-06T02:11:15.627Z,7.23
2019-03-06T02:13:45.570Z,6.27
2019-03-06T02:16:16.037Z,5.00
2019-03-06T02:18:46.130Z,6.33
2019-03-06T02:21:16.042Z,7.47
2019-03-06T02:23:46.009Z,9.70
2019-03-06T02:26:16.026Z,6.30
2019-03-06T02:28:46.066Z,6.33
2019-03-06T02:31:16.402Z,5.77
2019-03-06T02:33:46.338Z,6.47
2019-03-06T02:36:16.243Z,6.90
2019-03-06T02:38:46.322Z,5.30
2019-03-06T02:41:16.249Z,6.27
2019-03-06T02:43:46.349Z,10.33
2019-03-06T02:46:16.345Z,7.80
2019-03-06T02:48:46.279Z,7.77
2019-03-06T02:51:16.341Z,8.60
2019-03-06T02:53:46.479Z,7.07
2019-03-06T02:56:16.491Z,7.90
2019-03-06T02:59:09.721Z,7.10
2019-03-06T03:01:57.114Z,6.50
2019-03-06T03:04:40.838Z,8.00
2019-03-06T03:07:13.902Z,5.20
2019-03-06T03:09:43.855Z,7.80
2019-03-06T03:12:13.862Z,6.47
2019-03-06T03:14:43.724Z,6.83
2019-03-06T03:17:13.787Z,7.47
2019-03-06T03:19:43.775Z,4.70
2019-03-06T03:22:13.717Z,6.87
2019-03-06T03:24:43.626Z,6.00
2019-03-06T03:27:13.751Z,6.97
2019-03-06T03:29:43.595Z,5.00
2019-03-06T03:32:13.570Z,6.80
2019-03-06T03:34:43.451Z,5.57
2019-03-06T03:37:13.430Z,6.90
2019-03-06T03:39:43.354Z,5.27
2019-03-06T03:42:13.247Z,5.43
2019-03-06T03:44:43.376Z,5.87
2019-03-06T03:47:13.447Z,7.63
2019-03-06T03:49:43.419Z,6.00
2019-03-06T03:52:13.423Z,7.13
2019-03-06T03:54:43.387Z,5.97
2019-03-06T03:57:13.825Z,5.67
2019-03-06T03:59:44.032Z,6.80
2019-03-06T04:02:13.916Z,6.90
2019-03-06T04:04:43.966Z,5.90
2019-03-06T04:07:13.951Z,6.80
2019-03-06T04:09:44.253Z,7.00
2019-03-06T04:12:14.255Z,8.97
2019-03-06T04:14:44.151Z,7.73
2019-03-06T04:17:14.132Z,6.73
2019-03-06T04:19:44.130Z,6.77
2019-03-06T04:22:14.444Z,5.83
2019-03-06T04:24:44.405Z,5.43
2019-03-06T04:27:14.502Z,9.87
2019-03-06T04:29:44.386Z,5.57
2019-03-06T04:32:14.330Z,6.87
2019-03-06T04:34:44.271Z,8.03
2019-03-06T04:37:14.352Z,8.37
2019-03-06T04:39:44.323Z,5.10
2019-03-06T04:42:14.313Z,7.13
2019-03-06T04:44:44.230Z,5.13
2019-03-06T04:47:14.223Z,5.83
2019-03-06T04:49:52.386Z,5.67
2019-03-06T04:52:15.798Z,7.60
2019-03-06T04:54:45.756Z,9.30
2019-03-06T04:57:15.954Z,7.00
2019-03-06T04:59:45.884Z,7.23
2019-03-06T05:02:15.778Z,7.00
2019-03-06T05:04:45.741Z,8.57
2019-03-06T05:07:15.651Z,6.97
2019-03-06T05:09:45.607Z,8.60
2019-03-06T05:12:15.531Z,5.23
2019-03-06T05:14:45.522Z,5.60
2019-03-06T05:17:28.457Z,7.17
2019-03-06T05:19:58.417Z,7.80
2019-03-06T05:22:28.326Z,7.10
2019-03-06T05:24:58.382Z,6.43
2019-03-06T05:27:28.511Z,6.87
2019-03-06T05:29:58.463Z,6.97
2019-03-06T05:32:38.485Z,7.23
2019-03-06T05:35:15.177Z,8.57
2019-03-06T05:38:09.631Z,6.90
2019-03-06T05:40:39.754Z,9.27
2019-03-06T05:43:09.940Z,6.93
2019-03-06T05:45:39.947Z,7.77
2019-03-06T05:48:09.964Z,8.90
2019-03-06T05:50:40.030Z,5.73
2019-03-06T05:53:09.982Z,7.17
2019-03-06T05:55:40.025Z,6.40
2019-03-06T05:58:10.417Z,7.37
2019-03-06T06:00:40.428Z,7.20
2019-03-06T06:03:10.374Z,6.87
2019-03-06T06:05:40.463Z,9.30
2019-03-06T06:08:10.390Z,7.33
2019-03-06T06:10:40.325Z,8.17
2019-03-06T06:13:10.332Z,10.87
2019-03-06T06:15:40.232Z,8.63
2019-03-06T06:18:10.182Z,8.10
2019-03-06T06:20:41.138Z,10.40
2019-03-06T06:23:29.052Z,7.27
2019-03-06T06:25:59.070Z,7.37
2019-03-06T06:28:29.030Z,7.90
2019-03-06T06:30:58.930Z,6.07
2019-03-06T06:33:29.279Z,8.37
2019-03-06T06:35:59.166Z,9.57
2019-03-06T06:38:29.189Z,6.23
2019-03-06T06:40:59.211Z,6.90
2019-03-06T06:43:29.157Z,5.90
2019-03-06T06:45:59.071Z,7.63
2019-03-06T06:48:29.249Z,8.30
2019-03-06T06:51:06.634Z,7.80
2019-03-06T06:53:52.211Z,8.20
2019-03-06T06:56:52.746Z,8.93
2019-03-06T06:59:30.317Z,8.20
2019-03-06T07:02:45.859Z,6.87
2019-03-06T07:05:39.577Z,9.57
2019-03-06T07:08:28.435Z,8.50
2019-03-06T07:11:26.639Z,9.07
2019-03-06T07:14:24.811Z,9.10
2019-03-06T07:17:16.481Z,9.00
2019-03-06T07:20:14.297Z,12.67
2019-03-06T07:23:09.661Z,13.40
2019-03-06T07:25:57.675Z,12.83
2019-03-06T07:28:46.742Z,15.40
2019-03-06T07:31:35.658Z,12.17
2019-03-06T07:34:11.603Z,12.80
2019-03-06T07:36:58.564Z,15.20
2019-03-06T07:39:47.523Z,9.77
2019-03-06T07:42:45.420Z,10.67
2019-03-06T07:45:59.505Z,12.63
2019-03-06T07:48:43.885Z,12.83
2019-03-06T07:51:27.412Z,12.93
2019-03-06T07:54:26.046Z,13.83
2019-03-06T07:57:24.154Z,13.77
2019-03-06T07:59:54.227Z,15.57
2019-03-06T08:02:48.845Z,13.53
2019-03-06T08:05:19.041Z,13.90
2019-03-06T08:07:48.963Z,14.70
2019-03-06T08:10:20.674Z,13.67
2019-03-06T08:12:59.853Z,14.87
2019-03-06T08:16:01.319Z,12.83
2019-03-06T08:18:59.367Z,12.83
2019-03-06T08:21:41.930Z,13.13
2019-03-06T08:24:24.097Z,12.87
2019-03-06T08:26:54.031Z,12.97
2019-03-06T08:29:24.170Z,13.20
2019-03-06T08:31:59.785Z,16.07
2019-03-06T08:34:29.991Z,15.77
2019-03-06T08:36:59.990Z,16.33
2019-03-06T08:39:30.050Z,14.87
2019-03-06T08:42:00.037Z,12.87
2019-03-06T08:44:29.951Z,12.20
2019-03-06T08:47:21.915Z,15.53
2019-03-06T08:49:59.158Z,13.93
2019-03-06T08:52:48.052Z,14.83
2019-03-06T08:55:40.175Z,16.00
2019-03-06T08:58:35.142Z,15.07
2019-03-06T09:01:45.272Z,12.07
2019-03-06T09:04:27.074Z,14.23
2019-03-06T09:07:22.390Z,15.37
2019-03-06T09:10:14.142Z,13.03
2019-03-06T09:13:21.498Z,13.83
2019-03-06T09:16:06.326Z,13.33
2019-03-06T09:18:52.125Z,12.27
2019-03-06T09:21:43.795Z,15.13
2019-03-06T09:24:32.063Z,13.20
2019-03-06T09:27:26.965Z,13.60
2019-03-06T09:30:16.174Z,13.20
2019-03-06T09:33:23.650Z,14.10
2019-03-06T09:36:27.849Z,14.57
2019-03-06T09:39:21.882Z,13.40
2019-03-06T09:42:23.152Z,15.47
2019-03-06T09:45:05.238Z,12.23
2019-03-06T09:47:53.605Z,13.70
2019-03-06T09:50:45.446Z,16.30
2019-03-06T09:53:24.960Z,14.10
2019-03-06T09:56:05.985Z,14.03
2019-03-06T09:58:43.618Z,15.57
2019-03-06T10:01:23.721Z,15.07
2019-03-06T10:04:13.835Z,17.47
2019-03-06T10:06:51.775Z,18.00
2019-03-06T10:09:59.168Z,15.03
2019-03-06T10:12:52.119Z,17.63
2019-03-06T10:15:28.833Z,15.90
2019-03-06T10:18:09.307Z,16.40
2019-03-06T10:20:39.296Z,15.17
2019-03-06T10:23:09.544Z,14.70
2019-03-06T10:25:39.430Z,17.80
2019-03-06T10:28:09.509Z,15.17
2019-03-06T10:30:39.791Z,17.93
2019-03-06T10:33:09.677Z,17.93
2019-03-06T10:35:39.823Z,14.90
2019-03-06T10:38:16.483Z,17.07
2019-03-06T10:40:41.537Z,16.70
2019-03-06T10:43:11.549Z,17.07
2019-03-06T10:45:42.194Z,16.97
2019-03-06T10:48:12.331Z,16.87
2019-03-06T10:50:42.426Z,14.90
2019-03-06T10:53:12.588Z,17.03
2019-03-06T10:55:42.808Z,16.33
2019-03-06T10:58:12.815Z,16.53
2019-03-06T11:00:49.650Z,18.03
2019-03-06T11:03:19.846Z,17.57
2019-03-06T11:05:51.093Z,17.67
2019-03-06T11:08:22.077Z,18.03
2019-03-06T11:10:52.230Z,16.13
2019-03-06T11:13:23.447Z,18.70
2019-03-06T11:15:56.001Z,18.67
2019-03-06T11:18:25.499Z,16.67
2019-03-06T11:20:55.767Z,18.07
2019-03-06T11:23:25.882Z,18.27
2019-03-06T11:25:56.014Z,19.33
2019-03-06T11:28:26.163Z,17.03
2019-03-06T11:30:56.507Z,17.63
2019-03-06T11:33:26.948Z,16.93
2019-03-06T11:35:57.796Z,19.73
2019-03-06T11:38:29.250Z,19.17
2019-03-06T11:40:59.576Z,16.07
2019-03-06T11:43:29.761Z,17.93
2019-03-06T11:46:00.338Z,17.50
2019-03-06T11:48:32.048Z,17.73
2019-03-06T11:51:02.303Z,17.43
2019-03-06T11:53:32.972Z,17.67
2019-03-06T11:56:03.220Z,16.77
2019-03-06T11:58:33.407Z,16.77
2019-03-06T12:01:04.977Z,16.10
2019-03-06T12:03:34.915Z,15.53
2019-03-06T12:06:06.573Z,14.00
2019-03-06T12:08:42.871Z,15.83
2019-03-06T12:11:08.741Z,15.50
2019-03-06T12:13:38.855Z,15.90
2019-03-06T12:16:09.409Z,16.93
2019-03-06T12:18:39.394Z,14.60
2019-03-06T12:21:09.613Z,14.33
2019-03-06T12:23:39.597Z,14.77
2019-03-06T12:26:09.808Z,11.87
2019-03-06T12:28:39.955Z,15.20
2019-03-06T12:31:11.405Z,15.13
2019-03-06T12:33:41.562Z,14.57
2019-03-06T12:36:11.733Z,13.07
2019-03-06T12:38:41.983Z,16.87
2019-03-06T12:41:12.762Z,14.23
2019-03-06T12:43:44.644Z,15.90
2019-03-06T12:46:24.311Z,13.77
2019-03-06T12:49:05.794Z,15.40
2019-03-06T12:51:37.247Z,13.57
2019-03-06T12:54:08.398Z,17.37
2019-03-06T12:56:38.626Z,14.50
2019-03-06T12:59:08.841Z,12.50
2019-03-06T13:01:39.241Z,12.90
2019-03-06T13:04:09.410Z,14.50
2019-03-06T13:06:39.611Z,14.23
2019-03-06T13:09:17.399Z,11.90
2019-03-06T13:11:47.690Z,14.07
2019-03-06T13:14:18.010Z,14.70
2019-03-06T13:16:48.241Z,14.97
2019-03-06T13:19:18.464Z,15.83
2019-03-06T13:21:48.473Z,16.50
2019-03-06T13:24:18.682Z,15.20
2019-03-06T13:26:48.674Z,15.57
2019-03-06T13:29:18.975Z,15.60
2019-03-06T13:31:49.197Z,14.53
2019-03-06T13:34:24.753Z,14.10
2019-03-06T13:36:55.042Z,16.93
2019-03-06T13:39:26.060Z,15.30
2019-03-06T13:41:56.231Z,15.03
2019-03-06T13:44:26.188Z,16.10
2019-03-06T13:46:56.195Z,17.20
2019-03-06T13:49:26.279Z,15.27
2019-03-06T13:51:56.464Z,15.57
2019-03-06T13:54:26.514Z,15.97
2019-03-06T13:56:56.544Z,14.70
2019-03-06T13:59:26.720Z,14.83
2019-03-06T14:01:56.830Z,16.20
2019-03-06T14:04:26.995Z,15.80
2019-03-06T14:06:57.003Z,15.50
2019-03-06T14:09:27.453Z,16.73
2019-03-06T14:11:57.445Z,17.40
2019-03-06T14:14:27.547Z,14.23
2019-03-06T14:16:57.943Z,17.37
2019-03-06T14:19:27.869Z,17.43
2019-03-06T14:21:57.924Z,16.57
2019-03-06T14:24:28.138Z,19.03
2019-03-06T14:26:58.167Z,15.80
2019-03-06T14:29:28.173Z,14.37
2019-03-06T14:31:58.210Z,15.63
2019-03-06T14:34:28.182Z,15.93
2019-03-06T14:36:58.419Z,16.43
2019-03-06T14:39:32.431Z,16.80
2019-03-06T14:42:02.919Z,14.73
2019-03-06T14:44:32.830Z,17.77
2019-03-06T14:47:03.024Z,17.53
2019-03-06T14:49:33.382Z,16.63
2019-03-06T14:52:07.161Z,17.57
2019-03-06T14:54:35.270Z,18.40
2019-03-06T14:57:05.395Z,19.33
2019-03-06T14:59:35.585Z,17.20
2019-03-06T15:02:05.664Z,17.17
2019-03-06T15:04:35.634Z,15.77
2019-03-06T15:07:06.338Z,15.27
2019-03-06T15:09:36.589Z,18.43
2019-03-06T15:12:06.656Z,17.77
2019-03-06T15:14:37.762Z,17.90
2019-03-06T15:17:08.427Z,18.37
2019-03-06T15:19:39.646Z,18.93
2019-03-06T15:22:09.809Z,15.33
2019-03-06T15:24:41.588Z,16.23
2019-03-06T15:27:11.583Z,17.03
2019-03-06T15:29:42.018Z,16.63
2019-03-06T15:32:12.253Z,17.07
2019-03-06T15:34:42.351Z,15.60
2019-03-06T15:37:12.385Z,20.27
2019-03-06T15:39:48.252Z,17.10
2019-03-06T15:42:15.755Z,20.57
2019-03-06T15:44:45.918Z,18.63
2019-03-06T15:47:15.972Z,16.93
2019-03-06T15:49:46.056Z,17.13
2019-03-06T15:52:16.166Z,18.87
2019-03-06T15:54:46.467Z,16.90
2019-03-06T15:57:16.872Z,15.57
2019-03-06T15:59:46.894Z,15.43
2019-03-06T16:02:17.127Z,16.80
2019-03-06T16:04:47.175Z,16.83
2019-03-06T16:07:17.567Z,14.47
2019-03-06T16:09:47.651Z,16.07
2019-03-06T16:12:17.747Z,17.00
2019-03-06T16:14:51.132Z,18.27
2019-03-06T16:17:21.447Z,17.50
2019-03-06T16:19:51.514Z,15.80
2019-03-06T16:22:21.646Z,14.37
2019-03-06T16:24:51.982Z,17.33
2019-03-06T16:27:22.065Z,13.63
2019-03-06T16:29:52.397Z,15.53
2019-03-06T16:32:22.736Z,14.50
2019-03-06T16:34:53.186Z,17.77
2019-03-06T16:37:23.295Z,15.70
2019-03-06T16:39:53.303Z,15.80
2019-03-06T16:42:23.376Z,14.57
2019-03-06T16:44:53.499Z,13.47
2019-03-06T16:47:23.973Z,15.50
2019-03-06T16:49:54.462Z,14.50
2019-03-06T16:52:24.952Z,12.50
2019-03-06T16:54:55.277Z,11.90
2019-03-06T16:57:25.711Z,14.57
2019-03-06T16:59:56.421Z,15.50
2019-03-06T17:02:26.789Z,12.97
2019-03-06T17:04:56.986Z,11.33
2019-03-06T17:07:27.188Z,13.33
2019-03-06T17:09:57.490Z,11.40
2019-03-06T17:12:27.973Z,15.70
2019-03-06T17:14:57.959Z,12.37
2019-03-06T17:17:28.093Z,13.73
2019-03-06T17:19:58.156Z,15.63
2019-03-06T17:22:28.271Z,11.73
2019-03-06T17:24:58.599Z,14.40
2019-03-06T17:27:28.755Z,15.63
2019-03-06T17:29:58.779Z,14.10
2019-03-06T17:32:29.113Z,14.13
2019-03-06T17:35:18.023Z,15.30
2019-03-06T17:37:48.369Z,13.23
2019-03-06T17:40:19.097Z,13.83
2019-03-06T17:42:49.315Z,17.13
2019-03-06T17:45:19.897Z,15.87
2019-03-06T17:47:50.099Z,15.07
2019-03-06T17:50:20.531Z,17.07
2019-03-06T17:52:50.779Z,15.00
2019-03-06T17:55:20.832Z,16.90
2019-03-06T17:57:51.056Z,18.77
2019-03-06T18:00:25.582Z,17.37
2019-03-06T18:02:56.307Z,18.13
2019-03-06T18:05:26.358Z,16.53
2019-03-06T18:07:56.686Z,18.23
2019-03-06T18:10:26.807Z,16.97
2019-03-06T18:12:56.957Z,19.77
2019-03-06T18:15:27.581Z,18.60
2019-03-06T18:17:57.807Z,16.53
2019-03-06T18:20:27.990Z,17.03
2019-03-06T18:22:57.983Z,18.63
2019-03-06T18:25:28.101Z,18.73
2019-03-06T18:27:58.222Z,18.77
2019-03-06T18:30:28.673Z,18.50
2019-03-06T18:32:58.850Z,18.10
2019-03-06T18:35:28.916Z,20.00
2019-03-06T18:37:59.210Z,20.17
2019-03-06T18:40:30.290Z,19.90
2019-03-06T18:43:00.321Z,19.10
2019-03-06T18:45:30.347Z,18.03
2019-03-06T18:48:00.617Z,20.00
2019-03-06T18:50:30.717Z,18.53
2019-03-06T18:53:00.880Z,18.63
2019-03-06T18:55:30.868Z,19.23
2019-03-06T18:58:01.174Z,20.27
2019-03-06T19:00:33.509Z,22.33
2019-03-06T19:03:03.165Z,19.43
2019-03-06T19:05:33.242Z,19.73
2019-03-06T19:08:03.426Z,20.20
2019-03-06T19:10:34.848Z,21.53
2019-03-06T19:13:05.096Z,21.17
2019-03-06T19:15:35.333Z,22.80
2019-03-06T19:18:05.570Z,18.80
2019-03-06T19:20:35.692Z,19.20
2019-03-06T19:23:05.918Z,21.23
2019-03-06T19:25:36.421Z,18.00
2019-03-06T19:28:07.934Z,20.30
2019-03-06T19:30:38.061Z,20.23
2019-03-06T19:33:08.429Z,21.60
2019-03-06T19:35:38.514Z,21.47
2019-03-06T19:38:09.212Z,25.50
2019-03-06T19:40:39.427Z,24.40
2019-03-06T19:43:09.963Z,25.17
2019-03-06T19:45:39.975Z,27.93
2019-03-06T19:48:10.135Z,29.60
2019-03-06T19:50:40.212Z,31.50
2019-03-06T19:53:10.553Z,33.00
2019-03-06T19:55:40.981Z,35.90
2019-03-06T19:58:11.260Z,34.87
2019-03-06T20:00:41.529Z,36.73
2019-03-06T20:03:12.155Z,38.90
2019-03-06T20:05:42.697Z,39.63
2019-03-06T20:08:13.493Z,40.67
2019-03-06T20:10:45.442Z,38.53
2019-03-06T20:13:15.988Z,42.73
2019-03-06T20:15:45.962Z,43.87
2019-03-06T20:18:16.540Z,43.57
2019-03-06T20:20:46.716Z,44.33
2019-03-06T20:23:16.930Z,47.97
2019-03-06T20:25:48.300Z,48.53
2019-03-06T20:28:20.394Z,44.53
2019-03-06T20:30:51.365Z,47.30
2019-03-06T20:33:22.276Z,48.10
2019-03-06T20:35:52.641Z,48.73
2019-03-06T20:38:22.942Z,49.80
2019-03-06T20:40:53.412Z,48.73
2019-03-06T20:43:25.760Z,52.50
2019-03-06T20:45:56.441Z,53.53
2019-03-06T20:48:28.688Z,54.27
2019-03-06T20:50:59.826Z,53.73
2019-03-06T20:53:30.124Z,57.43
2019-03-06T20:56:00.305Z,51.57
2019-03-06T20:58:30.483Z,56.53
2019-03-06T21:01:01.588Z,57.37
2019-03-06T21:03:32.248Z,54.03
2019-03-06T21:06:02.813Z,53.87
2019-03-06T21:08:32.848Z,58.13
2019-03-06T21:11:02.985Z,54.80
2019-03-06T21:13:33.235Z,54.73
2019-03-06T21:16:03.308Z,56.60
2019-03-06T21:18:34.173Z,50.83
2019-03-06T21:21:04.848Z,53.07
2019-03-06T21:23:34.921Z,49.37
2019-03-06T21:26:04.953Z,51.67
2019-03-06T21:28:35.100Z,49.27
2019-03-06T21:31:05.218Z,49.97
2019-03-06T21:33:36.042Z,45.97
2019-03-06T21:36:07.682Z,46.73
2019-03-06T21:38:37.847Z,45.17
2019-03-06T21:41:08.035Z,45.07
2019-03-06T21:43:38.030Z,44.23
2019-03-06T21:46:08.043Z,42.63
2019-03-06T21:48:38.268Z,42.83
2019-03-06T21:51:10.288Z,39.63
2019-03-06T21:53:40.643Z,40.73
2019-03-06T21:56:11.604Z,42.57
2019-03-06T21:58:59.544Z,38.40
2019-03-06T22:01:30.118Z,41.70
2019-03-06T22:04:00.086Z,38.17
2019-03-06T22:06:30.173Z,36.53
2019-03-06T22:09:00.882Z,36.67
2019-03-06T22:11:30.993Z,38.73
2019-03-06T22:14:01.116Z,39.23
2019-03-06T22:16:31.395Z,37.17
2019-03-06T22:19:01.433Z,37.27
2019-03-06T22:21:31.484Z,35.93
2019-03-06T22:24:01.530Z,38.27
2019-03-06T22:26:31.637Z,39.07
2019-03-06T22:29:01.850Z,36.70
2019-03-06T22:31:31.886Z,34.17
2019-03-06T22:34:01.935Z,36.13
2019-03-06T22:36:32.038Z,34.53
2019-03-06T22:39:02.224Z,34.97
2019-03-06T22:41:32.190Z,34.03
2019-03-06T22:44:02.123Z,32.57
2019-03-06T22:46:32.278Z,31.60
2019-03-06T22:49:02.242Z,36.73
2019-03-06T22:51:32.353Z,35.50
2019-03-06T22:54:02.689Z,35.47
2019-03-06T22:56:32.596Z,35.33
2019-03-06T22:59:02.757Z,30.33
2019-03-06T23:01:35.134Z,32.87
2019-03-06T23:04:05.682Z,30.53
2019-03-06T23:06:37.275Z,32.73
2019-03-06T23:09:10.696Z,31.93
2019-03-06T23:11:40.946Z,27.37
2019-03-06T23:14:11.003Z,29.33
2019-03-06T23:16:41.197Z,28.00
2019-03-06T23:19:11.448Z,31.47
2019-03-06T23:21:41.548Z,29.60
2019-03-06T23:24:11.606Z,27.93
2019-03-06T23:26:43.074Z,29.43
2019-03-06T23:29:13.444Z,25.37
2019-03-06T23:31:43.540Z,26.90
2019-03-06T23:34:13.574Z,25.77
2019-03-06T23:36:43.822Z,29.20
2019-03-06T23:39:14.209Z,26.93
2019-03-06T23:41:44.342Z,25.87
2019-03-06T23:44:16.239Z,26.23
2019-03-06T23:46:46.311Z,26.83
2019-03-06T23:49:16.308Z,27.57
2019-03-06T23:52:00.315Z,25.30
2019-03-06T23:54:30.730Z,22.83
2019-03-06T23:57:00.977Z,27.83
2019-03-06T23:59:31.076Z,24.00
